Griffin, Texas
Current Conditions -  °F | °C
As of 11:15 AM on Sunday 21 Dec 2014 (Local Time) from KJSO Reporting Station
Overcast Overcast  
Wind Chill: 47°   Ceiling: 1500
Heat Index: 47°   Visibility: 7mi
Dew Point: 45°   Wind: 3mph
Humidity: 92%   Direction: 180°S
Pressure: 30.13"   Gusts: NA
Location:  32.0774°N, 95.1103°W
Report Text: KJSO 211715Z AUTO 18003KT 7SM SCT006 OVC015 08/07 A3013 RMK AO2 T00850073
Loading
Personal Weather Stations






























Interactive Weather Map New forecast layout! Learn more

10-Day Weather Forecast

Advertisements
Track Severe Weather on mobile